sensor_id;sensor_type;location;lat;lon;timestamp;pressure;altitude;pressure_sealevel;temperature;humidity
83488;BME280;73424;49.994;8.184;2024-01-27T00:02:22;101813.28;;;5.16;66.70
83488;BME280;73424;49.994;8.184;2024-01-27T00:04:47;101802.44;;;4.97;67.52
83488;BME280;73424;49.994;8.184;2024-01-27T00:07:13;101823.22;;;5.02;67.64
83488;BME280;73424;49.994;8.184;2024-01-27T00:09:39;101839.84;;;5.04;67.30
83488;BME280;73424;49.994;8.184;2024-01-27T00:12:05;101840.91;;;4.90;69.03
83488;BME280;73424;49.994;8.184;2024-01-27T00:14:30;101837.75;;;4.74;69.41
83488;BME280;73424;49.994;8.184;2024-01-27T00:16:56;101839.09;;;4.79;69.22
83488;BME280;73424;49.994;8.184;2024-01-27T00:19:21;101789.34;;;4.38;69.97
83488;BME280;73424;49.994;8.184;2024-01-27T00:21:46;101838.78;;;4.49;71.09
83488;BME280;73424;49.994;8.184;2024-01-27T00:24:13;101783.69;;;3.97;70.99
83488;BME280;73424;49.994;8.184;2024-01-27T00:26:38;101803.28;;;4.06;72.55
83488;BME280;73424;49.994;8.184;2024-01-27T00:29:04;101817.00;;;4.11;71.23
83488;BME280;73424;49.994;8.184;2024-01-27T00:31:29;101845.19;;;4.34;71.53
83488;BME280;73424;49.994;8.184;2024-01-27T00:33:54;101856.22;;;4.28;72.47
83488;BME280;73424;49.994;8.184;2024-01-27T00:36:20;101850.38;;;4.12;73.23
83488;BME280;73424;49.994;8.184;2024-01-27T00:38:45;101813.25;;;3.78;72.26
83488;BME280;73424;49.994;8.184;2024-01-27T00:41:16;101844.47;;;3.84;73.98
83488;BME280;73424;49.994;8.184;2024-01-27T00:43:41;101825.00;;;3.62;73.30
83488;BME280;73424;49.994;8.184;2024-01-27T00:46:06;101822.50;;;3.48;74.46
83488;BME280;73424;49.994;8.184;2024-01-27T00:48:31;101837.50;;;3.47;74.57
83488;BME280;73424;49.994;8.184;2024-01-27T00:50:57;101822.31;;;3.38;75.06
83488;BME280;73424;49.994;8.184;2024-01-27T00:53:22;101853.09;;;3.50;76.00
83488;BME280;73424;49.994;8.184;2024-01-27T00:55:48;101859.94;;;3.53;76.02
83488;BME280;73424;49.994;8.184;2024-01-27T00:58:13;101835.81;;;3.34;76.01
83488;BME280;73424;49.994;8.184;2024-01-27T01:00:38;101859.00;;;3.54;76.82
83488;BME280;73424;49.994;8.184;2024-01-27T01:03:04;101845.50;;;3.46;76.51
83488;BME280;73424;49.994;8.184;2024-01-27T01:05:29;101693.03;;;2.28;77.12
83488;BME280;73424;49.994;8.184;2024-01-27T01:07:54;101835.94;;;3.19;77.71
83488;BME280;73424;49.994;8.184;2024-01-27T01:10:20;101850.63;;;2.98;79.75
83488;BME280;73424;49.994;8.184;2024-01-27T01:12:45;101856.00;;;2.84;80.17
83488;BME280;73424;49.994;8.184;2024-01-27T01:15:10;101868.75;;;2.78;80.80
83488;BME280;73424;49.994;8.184;2024-01-27T01:17:35;101886.66;;;2.85;80.79
83488;BME280;73424;49.994;8.184;2024-01-27T01:20:01;101898.22;;;2.70;80.87
83488;BME280;73424;49.994;8.184;2024-01-27T01:22:26;101892.28;;;2.54;81.61
83488;BME280;73424;49.994;8.184;2024-01-27T01:24:52;101871.00;;;2.17;81.69
83488;BME280;73424;49.994;8.184;2024-01-27T01:27:17;101888.69;;;2.15;82.59
83488;BME280;73424;49.994;8.184;2024-01-27T01:29:44;101862.25;;;1.90;83.26
83488;BME280;73424;49.994;8.184;2024-01-27T01:32:09;101908.75;;;2.04;83.22
83488;BME280;73424;49.994;8.184;2024-01-27T01:34:34;101845.31;;;1.53;83.12
83488;BME280;73424;49.994;8.184;2024-01-27T01:37:00;101837.34;;;1.41;83.69
83488;BME280;73424;49.994;8.184;2024-01-27T01:39:27;101910.19;;;1.81;84.05
83488;BME280;73424;49.994;8.184;2024-01-27T01:41:53;101869.66;;;1.43;84.62
83488;BME280;73424;49.994;8.184;2024-01-27T01:44:18;101873.91;;;1.31;85.07
83488;BME280;73424;49.994;8.184;2024-01-27T01:46:43;101853.31;;;1.24;85.63
83488;BME280;73424;49.994;8.184;2024-01-27T01:49:09;101904.13;;;1.38;85.39
83488;BME280;73424;49.994;8.184;2024-01-27T01:51:34;101851.63;;;0.94;86.45
83488;BME280;73424;49.994;8.184;2024-01-27T01:54:00;101885.44;;;1.15;86.51
83488;BME280;73424;49.994;8.184;2024-01-27T01:56:25;101872.66;;;1.08;86.09
83488;BME280;73424;49.994;8.184;2024-01-27T01:58:51;101898.31;;;1.19;86.33
83488;BME280;73424;49.994;8.184;2024-01-27T02:01:17;101904.13;;;1.24;85.99
83488;BME280;73424;49.994;8.184;2024-01-27T02:03:53;101888.34;;;1.24;86.48
83488;BME280;73424;49.994;8.184;2024-01-27T02:06:19;101911.44;;;1.33;86.27
83488;BME280;73424;49.994;8.184;2024-01-27T02:08:44;101865.31;;;0.85;87.07
83488;BME280;73424;49.994;8.184;2024-01-27T02:11:09;101914.59;;;0.96;87.74
83488;BME280;73424;49.994;8.184;2024-01-27T02:13:35;101898.09;;;0.94;87.74
83488;BME280;73424;49.994;8.184;2024-01-27T02:16:00;101910.72;;;0.87;88.02
83488;BME280;73424;49.994;8.184;2024-01-27T02:18:26;101890.06;;;0.67;87.46
83488;BME280;73424;49.994;8.184;2024-01-27T02:20:51;101871.59;;;0.53;87.66
83488;BME280;73424;49.994;8.184;2024-01-27T02:23:17;101830.63;;;0.50;87.14
83488;BME280;73424;49.994;8.184;2024-01-27T02:25:42;101904.00;;;0.97;87.31
83488;BME280;73424;49.994;8.184;2024-01-27T02:28:07;101909.63;;;0.91;87.72
83488;BME280;73424;49.994;8.184;2024-01-27T02:30:33;101910.94;;;0.98;87.53
83488;BME280;73424;49.994;8.184;2024-01-27T02:32:59;101820.94;;;0.37;86.85
83488;BME280;73424;49.994;8.184;2024-01-27T02:35:25;101903.88;;;0.85;87.28
83488;BME280;73424;49.994;8.184;2024-01-27T02:37:50;101917.22;;;0.96;87.17
83488;BME280;73424;49.994;8.184;2024-01-27T02:40:16;101926.50;;;1.01;87.38
83488;BME280;73424;49.994;8.184;2024-01-27T02:42:41;101915.16;;;0.57;88.06
83488;BME280;73424;49.994;8.184;2024-01-27T02:45:10;101938.94;;;0.84;88.42
83488;BME280;73424;49.994;8.184;2024-01-27T02:47:36;101909.19;;;0.69;88.60
83488;BME280;73424;49.994;8.184;2024-01-27T02:50:02;101931.91;;;0.70;88.33
83488;BME280;73424;49.994;8.184;2024-01-27T02:52:27;101911.41;;;0.61;88.74
83488;BME280;73424;49.994;8.184;2024-01-27T02:54:53;101898.69;;;0.39;89.04
83488;BME280;73424;49.994;8.184;2024-01-27T02:57:19;101917.63;;;0.44;89.66
83488;BME280;73424;49.994;8.184;2024-01-27T02:59:47;101924.59;;;0.30;89.94
83488;BME280;73424;49.994;8.184;2024-01-27T03:02:12;101912.50;;;0.12;90.46
83488;BME280;73424;49.994;8.184;2024-01-27T03:04:38;101915.88;;;0.14;90.54
83488;BME280;73424;49.994;8.184;2024-01-27T03:07:03;101936.47;;;0.21;90.45
83488;BME280;73424;49.994;8.184;2024-01-27T03:09:30;101944.97;;;0.25;91.05
83488;BME280;73424;49.994;8.184;2024-01-27T03:11:55;101944.00;;;0.12;90.37
83488;BME280;73424;49.994;8.184;2024-01-27T03:14:21;101899.47;;;-0.21;90.66
83488;BME280;73424;49.994;8.184;2024-01-27T03:16:46;101927.41;;;-0.05;91.22
83488;BME280;73424;49.994;8.184;2024-01-27T03:19:12;101930.78;;;-0.03;91.50
83488;BME280;73424;49.994;8.184;2024-01-27T03:21:37;101908.44;;;-0.10;91.19
83488;BME280;73424;49.994;8.184;2024-01-27T03:24:03;101942.13;;;-0.02;91.56
83488;BME280;73424;49.994;8.184;2024-01-27T03:26:28;101897.94;;;-0.25;91.11
83488;BME280;73424;49.994;8.184;2024-01-27T03:28:54;101861.38;;;-0.60;91.29
83488;BME280;73424;49.994;8.184;2024-01-27T03:31:19;101921.44;;;-0.24;91.72
83488;BME280;73424;49.994;8.184;2024-01-27T03:33:44;101936.34;;;-0.09;91.55
83488;BME280;73424;49.994;8.184;2024-01-27T03:36:10;101960.06;;;0.06;92.28
83488;BME280;73424;49.994;8.184;2024-01-27T03:38:36;101931.97;;;-0.08;91.29
83488;BME280;73424;49.994;8.184;2024-01-27T03:41:02;101959.91;;;0.09;90.98
83488;BME280;73424;49.994;8.184;2024-01-27T03:43:28;101967.84;;;0.23;91.64
83488;BME280;73424;49.994;8.184;2024-01-27T03:45:53;101945.84;;;0.10;91.21
83488;BME280;73424;49.994;8.184;2024-01-27T03:48:19;101880.50;;;-0.26;91.62
83488;BME280;73424;49.994;8.184;2024-01-27T03:50:44;101939.09;;;0.06;90.93
83488;BME280;73424;49.994;8.184;2024-01-27T03:53:09;101945.00;;;0.09;91.17
83488;BME280;73424;49.994;8.184;2024-01-27T03:55:35;101961.75;;;0.07;91.96
83488;BME280;73424;49.994;8.184;2024-01-27T03:58:00;101955.16;;;-0.01;91.49
83488;BME280;73424;49.994;8.184;2024-01-27T04:00:25;101953.09;;;-0.11;91.99
83488;BME280;73424;49.994;8.184;2024-01-27T04:02:52;101961.06;;;-0.13;92.96
83488;BME280;73424;49.994;8.184;2024-01-27T04:05:17;101947.00;;;-0.27;92.24
83488;BME280;73424;49.994;8.184;2024-01-27T04:07:42;101949.03;;;-0.17;92.41
83488;BME280;73424;49.994;8.184;2024-01-27T04:10:08;101919.22;;;-0.47;91.90
83488;BME280;73424;49.994;8.184;2024-01-27T04:12:34;101954.69;;;-0.24;92.77
83488;BME280;73424;49.994;8.184;2024-01-27T04:14:59;101929.59;;;-0.28;92.01
83488;BME280;73424;49.994;8.184;2024-01-27T04:17:24;101940.75;;;-0.25;92.74
83488;BME280;73424;49.994;8.184;2024-01-27T04:19:50;101977.59;;;0.21;91.81
83488;BME280;73424;49.994;8.184;2024-01-27T04:22:15;101939.41;;;-0.16;91.75
83488;BME280;73424;49.994;8.184;2024-01-27T04:24:41;101933.31;;;-0.17;91.94
83488;BME280;73424;49.994;8.184;2024-01-27T04:27:06;101921.03;;;-0.32;91.75
83488;BME280;73424;49.994;8.184;2024-01-27T04:29:31;101985.47;;;0.21;91.78
83488;BME280;73424;49.994;8.184;2024-01-27T04:31:57;101959.75;;;0.12;90.76
83488;BME280;73424;49.994;8.184;2024-01-27T04:34:22;101954.84;;;0.21;90.71
83488;BME280;73424;49.994;8.184;2024-01-27T04:36:47;101940.00;;;0.36;90.07
83488;BME280;73424;49.994;8.184;2024-01-27T04:39:13;101962.81;;;0.65;89.61
83488;BME280;73424;49.994;8.184;2024-01-27T04:41:42;101866.47;;;0.06;88.82
83488;BME280;73424;49.994;8.184;2024-01-27T04:44:08;101952.31;;;0.49;88.96
83488;BME280;73424;49.994;8.184;2024-01-27T04:46:33;101971.88;;;0.60;89.20
83488;BME280;73424;49.994;8.184;2024-01-27T04:48:59;101984.00;;;0.62;89.44
83488;BME280;73424;49.994;8.184;2024-01-27T04:51:24;101984.34;;;0.56;89.98
83488;BME280;73424;49.994;8.184;2024-01-27T04:53:50;101996.09;;;0.65;89.54
83488;BME280;73424;49.994;8.184;2024-01-27T04:56:15;101988.22;;;0.65;89.71
83488;BME280;73424;49.994;8.184;2024-01-27T04:58:40;101967.09;;;0.52;89.80
83488;BME280;73424;49.994;8.184;2024-01-27T05:01:06;101984.78;;;0.64;89.57
83488;BME280;73424;49.994;8.184;2024-01-27T05:03:31;101990.53;;;0.55;89.90
83488;BME280;73424;49.994;8.184;2024-01-27T05:05:57;101946.84;;;0.23;89.39
83488;BME280;73424;49.994;8.184;2024-01-27T05:08:22;101928.75;;;0.03;90.83
83488;BME280;73424;49.994;8.184;2024-01-27T05:10:47;102010.53;;;0.42;91.01
83488;BME280;73424;49.994;8.184;2024-01-27T05:13:13;101991.13;;;0.29;90.53
83488;BME280;73424;49.994;8.184;2024-01-27T05:15:38;101953.47;;;-0.02;90.65
83488;BME280;73424;49.994;8.184;2024-01-27T05:18:04;101970.72;;;0.03;90.85
83488;BME280;73424;49.994;8.184;2024-01-27T05:20:29;101999.16;;;0.10;91.22
83488;BME280;73424;49.994;8.184;2024-01-27T05:22:54;101993.91;;;-0.06;91.16
83488;BME280;73424;49.994;8.184;2024-01-27T05:25:20;101991.00;;;-0.17;92.01
83488;BME280;73424;49.994;8.184;2024-01-27T05:27:45;102011.66;;;-0.11;92.13
83488;BME280;73424;49.994;8.184;2024-01-27T05:30:11;101998.78;;;-0.15;91.78
83488;BME280;73424;49.994;8.184;2024-01-27T05:32:36;102016.72;;;-0.23;92.35
83488;BME280;73424;49.994;8.184;2024-01-27T05:35:02;102004.44;;;-0.23;92.83
83488;BME280;73424;49.994;8.184;2024-01-27T05:37:28;102001.22;;;-0.28;92.53
83488;BME280;73424;49.994;8.184;2024-01-27T05:39:53;102009.53;;;-0.20;92.46
83488;BME280;73424;49.994;8.184;2024-01-27T05:42:19;102014.88;;;-0.06;92.26
83488;BME280;73424;49.994;8.184;2024-01-27T05:44:44;102011.72;;;-0.12;92.03
83488;BME280;73424;49.994;8.184;2024-01-27T05:47:10;101979.03;;;-0.38;92.14
83488;BME280;73424;49.994;8.184;2024-01-27T05:49:36;101947.16;;;-0.63;91.89
83488;BME280;73424;49.994;8.184;2024-01-27T05:52:01;102017.56;;;-0.23;92.12
83488;BME280;73424;49.994;8.184;2024-01-27T05:54:27;101967.09;;;-0.43;92.43
83488;BME280;73424;49.994;8.184;2024-01-27T05:56:52;102019.53;;;-0.11;92.02
83488;BME280;73424;49.994;8.184;2024-01-27T05:59:18;101984.72;;;-0.30;92.08
83488;BME280;73424;49.994;8.184;2024-01-27T06:01:43;101896.84;;;-0.70;92.04
83488;BME280;73424;49.994;8.184;2024-01-27T06:04:10;102018.13;;;-0.01;91.85
83488;BME280;73424;49.994;8.184;2024-01-27T06:06:40;102010.66;;;-0.08;91.07
83488;BME280;73424;49.994;8.184;2024-01-27T06:09:07;102022.00;;;-0.08;91.64
83488;BME280;73424;49.994;8.184;2024-01-27T06:11:36;102004.44;;;-0.23;91.73
83488;BME280;73424;49.994;8.184;2024-01-27T06:14:02;102039.09;;;-0.01;91.55
83488;BME280;73424;49.994;8.184;2024-01-27T06:16:27;101986.75;;;-0.35;91.17
83488;BME280;73424;49.994;8.184;2024-01-27T06:18:52;102035.81;;;-0.21;91.77
83488;BME280;73424;49.994;8.184;2024-01-27T06:21:19;102044.09;;;-0.29;91.95
83488;BME280;73424;49.994;8.184;2024-01-27T06:23:45;102051.84;;;-0.43;92.73
83488;BME280;73424;49.994;8.184;2024-01-27T06:26:12;102053.69;;;-0.45;92.73
83488;BME280;73424;49.994;8.184;2024-01-27T06:28:38;102012.47;;;-0.76;93.12
83488;BME280;73424;49.994;8.184;2024-01-27T06:31:04;102052.75;;;-0.61;93.38
83488;BME280;73424;49.994;8.184;2024-01-27T06:33:29;102008.44;;;-1.00;93.67
83488;BME280;73424;49.994;8.184;2024-01-27T06:35:55;102035.03;;;-0.90;93.25
83488;BME280;73424;49.994;8.184;2024-01-27T06:38:20;102042.38;;;-0.80;93.30
83488;BME280;73424;49.994;8.184;2024-01-27T06:40:45;102047.69;;;-0.81;94.23
83488;BME280;73424;49.994;8.184;2024-01-27T06:43:14;102044.44;;;-0.86;93.93
83488;BME280;73424;49.994;8.184;2024-01-27T06:45:40;102030.09;;;-0.96;93.84
83488;BME280;73424;49.994;8.184;2024-01-27T06:48:06;102043.19;;;-0.96;94.00
83488;BME280;73424;49.994;8.184;2024-01-27T06:50:33;101994.50;;;-1.18;94.29
83488;BME280;73424;49.994;8.184;2024-01-27T06:52:58;101981.41;;;-1.18;93.79
83488;BME280;73424;49.994;8.184;2024-01-27T06:55:24;101983.13;;;-0.99;94.37
83488;BME280;73424;49.994;8.184;2024-01-27T06:57:49;101934.59;;;-1.24;94.27
83488;BME280;73424;49.994;8.184;2024-01-27T07:00:16;102032.91;;;-0.65;93.95
83488;BME280;73424;49.994;8.184;2024-01-27T07:02:42;102042.13;;;-0.58;93.15
83488;BME280;73424;49.994;8.184;2024-01-27T07:05:08;102047.50;;;-0.61;93.66
83488;BME280;73424;49.994;8.184;2024-01-27T07:07:34;101998.13;;;-1.03;93.57
83488;BME280;73424;49.994;8.184;2024-01-27T07:09:59;102044.53;;;-0.71;93.83
83488;BME280;73424;49.994;8.184;2024-01-27T07:12:25;102005.78;;;-0.98;94.33
83488;BME280;73424;49.994;8.184;2024-01-27T07:14:50;102054.00;;;-0.85;93.61
83488;BME280;73424;49.994;8.184;2024-01-27T07:17:16;102045.97;;;-0.99;94.27
83488;BME280;73424;49.994;8.184;2024-01-27T07:19:41;102037.66;;;-1.07;94.29
83488;BME280;73424;49.994;8.184;2024-01-27T07:22:07;101977.53;;;-1.45;93.94
83488;BME280;73424;49.994;8.184;2024-01-27T07:24:33;102051.97;;;-0.97;94.05
83488;BME280;73424;49.994;8.184;2024-01-27T07:27:00;102023.06;;;-1.13;94.13
83488;BME280;73424;49.994;8.184;2024-01-27T07:29:26;102011.97;;;-1.18;94.19
83488;BME280;73424;49.994;8.184;2024-01-27T07:31:52;101974.53;;;-1.37;94.01
83488;BME280;73424;49.994;8.184;2024-01-27T07:34:18;102004.66;;;-1.29;93.84
83488;BME280;73424;49.994;8.184;2024-01-27T07:36:44;102017.75;;;-1.29;93.21
83488;BME280;73424;49.994;8.184;2024-01-27T07:39:09;102052.56;;;-1.10;93.90
83488;BME280;73424;49.994;8.184;2024-01-27T07:41:35;102034.69;;;-1.19;94.74
83488;BME280;73424;49.994;8.184;2024-01-27T07:44:10;102056.31;;;-0.96;94.38
83488;BME280;73424;49.994;8.184;2024-01-27T07:46:40;102077.28;;;-0.62;93.99
83488;BME280;73424;49.994;8.184;2024-01-27T07:49:06;102041.75;;;-0.68;93.98
83488;BME280;73424;49.994;8.184;2024-01-27T07:51:32;102054.47;;;-0.60;93.13
83488;BME280;73424;49.994;8.184;2024-01-27T07:53:58;102073.56;;;-0.58;93.28
83488;BME280;73424;49.994;8.184;2024-01-27T07:56:23;102077.84;;;-0.56;92.67
83488;BME280;73424;49.994;8.184;2024-01-27T07:58:49;102024.25;;;-0.84;92.70
83488;BME280;73424;49.994;8.184;2024-01-27T08:01:15;102075.81;;;-0.50;92.73
83488;BME280;73424;49.994;8.184;2024-01-27T08:03:41;102087.00;;;-0.47;93.31
83488;BME280;73424;49.994;8.184;2024-01-27T08:06:07;102044.75;;;-0.75;92.99
83488;BME280;73424;49.994;8.184;2024-01-27T08:08:35;102045.44;;;-0.72;92.80
83488;BME280;73424;49.994;8.184;2024-01-27T08:11:00;102052.47;;;-0.72;92.65
83488;BME280;73424;49.994;8.184;2024-01-27T08:13:25;102077.59;;;-0.51;92.85
83488;BME280;73424;49.994;8.184;2024-01-27T08:15:51;102076.97;;;-0.39;92.69
83488;BME280;73424;49.994;8.184;2024-01-27T08:18:16;102066.78;;;-0.28;93.39
83488;BME280;73424;49.994;8.184;2024-01-27T08:20:41;102051.44;;;-0.03;92.78
83488;BME280;73424;49.994;8.184;2024-01-27T08:23:07;102044.78;;;0.08;91.41
83488;BME280;73424;49.994;8.184;2024-01-27T08:25:33;102016.84;;;0.07;91.46
83488;BME280;73424;49.994;8.184;2024-01-27T08:27:58;102084.03;;;0.42;91.58
83488;BME280;73424;49.994;8.184;2024-01-27T08:30:24;102069.78;;;0.46;91.27
83488;BME280;73424;49.994;8.184;2024-01-27T08:32:49;102001.56;;;0.15;90.61
83488;BME280;73424;49.994;8.184;2024-01-27T08:35:14;102073.53;;;0.73;90.48
83488;BME280;73424;49.994;8.184;2024-01-27T08:37:40;102035.94;;;0.57;90.23
83488;BME280;73424;49.994;8.184;2024-01-27T08:40:06;102016.97;;;0.52;90.06
83488;BME280;73424;49.994;8.184;2024-01-27T08:42:32;102079.78;;;0.86;90.20
83488;BME280;73424;49.994;8.184;2024-01-27T08:44:57;102063.69;;;0.92;88.92
83488;BME280;73424;49.994;8.184;2024-01-27T08:47:23;102065.34;;;1.09;89.63
83488;BME280;73424;49.994;8.184;2024-01-27T08:49:48;102042.56;;;1.09;89.33
83488;BME280;73424;49.994;8.184;2024-01-27T08:52:14;102057.31;;;1.26;88.18
83488;BME280;73424;49.994;8.184;2024-01-27T08:54:40;102089.38;;;1.33;87.34
83488;BME280;73424;49.994;8.184;2024-01-27T08:57:06;102045.00;;;1.13;87.54
83488;BME280;73424;49.994;8.184;2024-01-27T08:59:31;102075.69;;;1.42;86.91
83488;BME280;73424;49.994;8.184;2024-01-27T09:01:57;102068.84;;;1.39;86.38
83488;BME280;73424;49.994;8.184;2024-01-27T09:04:22;102094.03;;;1.57;86.17
83488;BME280;73424;49.994;8.184;2024-01-27T09:06:47;102009.59;;;1.04;86.73
83488;BME280;73424;49.994;8.184;2024-01-27T09:09:13;102117.28;;;1.65;86.65
83488;BME280;73424;49.994;8.184;2024-01-27T09:11:39;102110.13;;;1.67;85.93
83488;BME280;73424;49.994;8.184;2024-01-27T09:14:04;102120.09;;;1.62;85.93
83488;BME280;73424;49.994;8.184;2024-01-27T09:16:32;102120.31;;;1.73;85.62
83488;BME280;73424;49.994;8.184;2024-01-27T09:18:57;102080.72;;;1.60;84.93
83488;BME280;73424;49.994;8.184;2024-01-27T09:21:23;102080.81;;;1.59;85.00
83488;BME280;73424;49.994;8.184;2024-01-27T09:23:53;102132.19;;;1.94;85.33
83488;BME280;73424;49.994;8.184;2024-01-27T09:26:19;102113.44;;;1.85;85.83
83488;BME280;73424;49.994;8.184;2024-01-27T09:28:44;102132.00;;;1.97;85.57
83488;BME280;73424;49.994;8.184;2024-01-27T09:31:12;102133.34;;;2.04;84.47
83488;BME280;73424;49.994;8.184;2024-01-27T09:33:37;102064.38;;;1.84;83.15
83488;BME280;73424;49.994;8.184;2024-01-27T09:36:03;102085.94;;;2.04;83.14
83488;BME280;73424;49.994;8.184;2024-01-27T09:38:29;102134.75;;;2.38;83.75
83488;BME280;73424;49.994;8.184;2024-01-27T09:40:54;102128.44;;;2.41;83.51
83488;BME280;73424;49.994;8.184;2024-01-27T09:43:21;102098.66;;;2.26;83.01
83488;BME280;73424;49.994;8.184;2024-01-27T09:45:46;102131.72;;;2.58;83.14
83488;BME280;73424;49.994;8.184;2024-01-27T09:48:13;102130.69;;;2.61;82.89
83488;BME280;73424;49.994;8.184;2024-01-27T09:50:41;102083.69;;;2.41;83.41
83488;BME280;73424;49.994;8.184;2024-01-27T09:53:06;102121.41;;;2.82;82.17
83488;BME280;73424;49.994;8.184;2024-01-27T09:55:34;102119.91;;;2.92;82.62
83488;BME280;73424;49.994;8.184;2024-01-27T09:57:59;102108.56;;;3.04;82.49
83488;BME280;73424;49.994;8.184;2024-01-27T10:00:27;102122.66;;;3.17;81.43
83488;BME280;73424;49.994;8.184;2024-01-27T10:02:54;102078.06;;;3.00;80.69
83488;BME280;73424;49.994;8.184;2024-01-27T10:05:20;102076.03;;;3.18;80.06
83488;BME280;73424;49.994;8.184;2024-01-27T10:07:45;102114.19;;;3.52;80.18
83488;BME280;73424;49.994;8.184;2024-01-27T10:10:10;102100.16;;;3.51;80.17
83488;BME280;73424;49.994;8.184;2024-01-27T10:12:40;102122.03;;;3.66;81.38
83488;BME280;73424;49.994;8.184;2024-01-27T10:15:22;102127.97;;;3.69;81.38
83488;BME280;73424;49.994;8.184;2024-01-27T10:17:47;102099.84;;;3.56;80.51
83488;BME280;73424;49.994;8.184;2024-01-27T10:20:13;102092.59;;;3.72;81.33
83488;BME280;73424;49.994;8.184;2024-01-27T10:22:41;102099.03;;;3.80;79.73
83488;BME280;73424;49.994;8.184;2024-01-27T10:25:07;102103.78;;;4.01;80.19
83488;BME280;73424;49.994;8.184;2024-01-27T10:27:34;102068.63;;;3.75;79.93
83488;BME280;73424;49.994;8.184;2024-01-27T10:29:59;102087.00;;;4.02;80.15
83488;BME280;73424;49.994;8.184;2024-01-27T10:32:25;102062.94;;;4.06;78.63
83488;BME280;73424;49.994;8.184;2024-01-27T10:35:01;102073.38;;;4.20;78.67
83488;BME280;73424;49.994;8.184;2024-01-27T10:37:27;102044.66;;;4.16;77.11
83488;BME280;73424;49.994;8.184;2024-01-27T10:40:06;102084.34;;;4.39;78.01
83488;BME280;73424;49.994;8.184;2024-01-27T10:42:37;102074.06;;;4.48;76.33
83488;BME280;73424;49.994;8.184;2024-01-27T10:45:04;102079.75;;;4.54;75.67
83488;BME280;73424;49.994;8.184;2024-01-27T10:47:32;102067.91;;;4.60;75.57
83488;BME280;73424;49.994;8.184;2024-01-27T10:50:01;102048.66;;;4.58;76.40
83488;BME280;73424;49.994;8.184;2024-01-27T10:52:31;102066.34;;;4.81;75.78
83488;BME280;73424;49.994;8.184;2024-01-27T10:54:58;102033.22;;;4.64;76.34
83488;BME280;73424;49.994;8.184;2024-01-27T10:57:26;102080.00;;;4.75;76.21
83488;BME280;73424;49.994;8.184;2024-01-27T10:59:53;102015.91;;;4.48;73.76
83488;BME280;73424;49.994;8.184;2024-01-27T11:02:18;102058.13;;;4.73;73.08
83488;BME280;73424;49.994;8.184;2024-01-27T11:04:45;102071.75;;;5.03;73.49
83488;BME280;73424;49.994;8.184;2024-01-27T11:07:12;102028.19;;;4.96;72.89
83488;BME280;73424;49.994;8.184;2024-01-27T11:09:39;102039.56;;;5.09;75.17
83488;BME280;73424;49.994;8.184;2024-01-27T11:12:07;102037.19;;;5.17;73.39
83488;BME280;73424;49.994;8.184;2024-01-27T11:14:33;102059.84;;;5.32;73.68
83488;BME280;73424;49.994;8.184;2024-01-27T11:16:59;102072.91;;;5.46;72.24
83488;BME280;73424;49.994;8.184;2024-01-27T11:19:25;101974.84;;;5.02;71.57
83488;BME280;73424;49.994;8.184;2024-01-27T11:22:01;102082.34;;;5.73;69.97
83488;BME280;73424;49.994;8.184;2024-01-27T11:24:27;102024.88;;;5.40;71.32
83488;BME280;73424;49.994;8.184;2024-01-27T11:27:05;102051.97;;;5.55;71.45
83488;BME280;73424;49.994;8.184;2024-01-27T11:29:32;102046.50;;;5.69;72.81
83488;BME280;73424;49.994;8.184;2024-01-27T11:32:01;102031.31;;;5.71;69.97
83488;BME280;73424;49.994;8.184;2024-01-27T11:34:45;102024.69;;;5.76;71.39
83488;BME280;73424;49.994;8.184;2024-01-27T11:37:14;102037.16;;;5.87;70.45
83488;BME280;73424;49.994;8.184;2024-01-27T11:39:41;102025.31;;;5.80;70.61
83488;BME280;73424;49.994;8.184;2024-01-27T11:42:09;102027.47;;;5.75;70.54
83488;BME280;73424;49.994;8.184;2024-01-27T11:44:35;102056.78;;;6.07;70.74
83488;BME280;73424;49.994;8.184;2024-01-27T11:47:01;102040.03;;;5.95;69.93
83488;BME280;73424;49.994;8.184;2024-01-27T11:49:26;102044.03;;;5.89;69.83
83488;BME280;73424;49.994;8.184;2024-01-27T11:51:52;102002.28;;;5.69;69.65
83488;BME280;73424;49.994;8.184;2024-01-27T11:54:17;102050.66;;;6.17;69.88
83488;BME280;73424;49.994;8.184;2024-01-27T11:56:43;102007.53;;;6.04;68.90
83488;BME280;73424;49.994;8.184;2024-01-27T11:59:10;102023.56;;;6.14;68.57
83488;BME280;73424;49.994;8.184;2024-01-27T12:01:35;102003.66;;;5.97;69.22
83488;BME280;73424;49.994;8.184;2024-01-27T12:04:03;102044.72;;;6.25;69.40
83488;BME280;73424;49.994;8.184;2024-01-27T12:06:28;102040.75;;;6.30;67.02
83488;BME280;73424;49.994;8.184;2024-01-27T12:08:55;102003.94;;;6.05;66.75
83488;BME280;73424;49.994;8.184;2024-01-27T12:11:23;102006.91;;;6.12;66.78
83488;BME280;73424;49.994;8.184;2024-01-27T12:13:48;102045.31;;;6.39;66.67
83488;BME280;73424;49.994;8.184;2024-01-27T12:16:15;102034.47;;;6.42;65.64
83488;BME280;73424;49.994;8.184;2024-01-27T12:18:40;102048.22;;;6.47;67.93
83488;BME280;73424;49.994;8.184;2024-01-27T12:21:06;102045.56;;;6.47;66.74
83488;BME280;73424;49.994;8.184;2024-01-27T12:23:31;102024.97;;;6.40;66.82
83488;BME280;73424;49.994;8.184;2024-01-27T12:25:56;102050.81;;;6.70;64.96
83488;BME280;73424;49.994;8.184;2024-01-27T12:28:23;102047.06;;;6.83;64.23
83488;BME280;73424;49.994;8.184;2024-01-27T12:30:52;102046.75;;;6.97;65.17
83488;BME280;73424;49.994;8.184;2024-01-27T12:33:18;102043.47;;;7.05;62.85
83488;BME280;73424;49.994;8.184;2024-01-27T12:35:48;102049.28;;;6.99;62.61
83488;BME280;73424;49.994;8.184;2024-01-27T12:38:14;102009.56;;;6.88;62.77
83488;BME280;73424;49.994;8.184;2024-01-27T12:40:39;102047.28;;;7.23;63.02
83488;BME280;73424;49.994;8.184;2024-01-27T12:43:05;102042.53;;;7.06;62.12
83488;BME280;73424;49.994;8.184;2024-01-27T12:45:31;102051.66;;;7.13;60.80
83488;BME280;73424;49.994;8.184;2024-01-27T12:47:56;102010.19;;;7.01;61.27
83488;BME280;73424;49.994;8.184;2024-01-27T12:50:22;102040.88;;;6.94;61.92
83488;BME280;73424;49.994;8.184;2024-01-27T12:52:48;102019.84;;;7.02;61.83